createdAt,value
2023-01-03T00:01:19.963Z,6.43
2023-01-03T00:11:44.196Z,1.75
2023-01-03T00:21:46.512Z,1.25
2023-01-03T00:31:48.824Z,0.73
2023-01-03T00:41:51.093Z,0.85
2023-01-03T00:51:54.121Z,0.68
2023-01-03T01:01:57.285Z,1.02
2023-01-03T01:11:59.661Z,0.75
2023-01-03T01:22:01.902Z,2.35
2023-01-03T01:32:04.688Z,2.03
2023-01-03T01:42:31.500Z,0.60
2023-01-03T01:52:38.548Z,0.70
2023-01-03T02:02:41.032Z,5.63
2023-01-03T02:13:08.378Z,1.50
2023-01-03T02:23:50.686Z,1.20
2023-01-03T02:34:05.473Z,1.73
2023-01-03T02:44:28.238Z,2.60
2023-01-03T02:55:02.842Z,2.15
2023-01-03T03:05:12.824Z,1.30
2023-01-03T03:15:17.745Z,2.75
2023-01-03T03:25:45.095Z,2.45
2023-01-03T03:36:05.774Z,1.40
2023-01-03T03:46:14.628Z,1.35
2023-01-03T03:56:21.002Z,1.70
2023-01-03T04:06:29.711Z,1.27
2023-01-03T04:16:32.071Z,0.90
2023-01-03T04:26:34.413Z,0.95
2023-01-03T04:36:36.653Z,1.75
2023-01-03T04:46:40.851Z,0.88
2023-01-03T04:56:43.058Z,0.85
2023-01-03T05:06:45.243Z,1.77
2023-01-03T05:16:47.571Z,2.13
2023-01-03T05:26:50.328Z,1.00
2023-01-03T05:36:52.866Z,1.38
2023-01-03T05:46:55.017Z,2.20
2023-01-03T05:56:57.191Z,0.70
2023-01-03T06:06:59.547Z,2.08
2023-01-03T06:17:20.130Z,1.95
2023-01-03T06:27:22.462Z,0.73
2023-01-03T06:37:24.680Z,0.50
2023-01-03T06:47:45.685Z,2.50
2023-01-03T06:57:47.844Z,1.80
2023-01-03T07:07:50.022Z,4.10
2023-01-03T07:17:52.323Z,1.50
2023-01-03T07:28:00.420Z,3.38
2023-01-03T07:38:09.567Z,2.80
2023-01-03T07:48:12.217Z,2.17
2023-01-03T07:58:14.570Z,4.63
2023-01-03T08:08:16.794Z,7.35
2023-01-03T08:18:28.627Z,6.07
2023-01-03T08:28:31.306Z,3.47
2023-01-03T08:38:37.305Z,5.00
2023-01-03T08:48:39.837Z,3.60
2023-01-03T08:58:42.007Z,2.92
2023-01-03T09:08:44.505Z,7.10
2023-01-03T09:18:46.716Z,10.15
2023-01-03T09:28:48.898Z,5.95
2023-01-03T09:38:51.107Z,1.73
2023-01-03T09:48:55.480Z,2.53
2023-01-03T09:59:20.883Z,7.60
2023-01-03T10:09:36.888Z,3.78
2023-01-03T10:20:00.655Z,5.35
2023-01-03T10:30:06.821Z,4.55
2023-01-03T10:40:10.111Z,5.03
2023-01-03T10:50:23.600Z,6.25
2023-01-03T11:00:31.895Z,2.72
2023-01-03T11:10:54.404Z,4.10
2023-01-03T11:21:29.370Z,7.35
2023-01-03T11:31:35.245Z,3.45
2023-01-03T11:42:30.119Z,8.82
2023-01-03T11:52:56.602Z,9.30
2023-01-03T12:03:29.962Z,14.10
2023-01-03T12:13:50.959Z,5.95
2023-01-03T12:24:15.089Z,5.85
2023-01-03T12:34:17.280Z,6.20
2023-01-03T12:44:32.596Z,1.67
2023-01-03T12:54:37.566Z,6.00
2023-01-03T13:04:43.856Z,10.48
2023-01-03T13:15:15.227Z,5.18
2023-01-03T13:25:26.920Z,7.83
2023-01-03T13:35:32.549Z,3.60
2023-01-03T13:45:37.635Z,10.23
2023-01-03T13:55:57.136Z,5.57
2023-01-03T14:06:25.894Z,15.73
2023-01-03T14:16:39.076Z,9.98
2023-01-03T14:26:41.402Z,9.27
2023-01-03T14:36:47.963Z,4.95
2023-01-03T14:46:57.452Z,1.88
2023-01-03T14:57:02.117Z,6.00
2023-01-03T15:07:13.164Z,8.15
2023-01-03T15:17:19.621Z,5.32
2023-01-03T15:27:44.723Z,7.07
2023-01-03T15:37:47.502Z,4.32
2023-01-03T15:47:51.318Z,2.20
2023-01-03T15:57:54.190Z,2.35
2023-01-03T16:07:56.414Z,6.78
2023-01-03T16:17:58.666Z,22.08
2023-01-03T16:28:00.864Z,22.60
2023-01-03T16:38:03.086Z,13.15
2023-01-03T16:48:05.858Z,30.17
2023-01-03T16:58:15.862Z,28.27
2023-01-03T17:08:32.133Z,46.97
2023-01-03T17:18:40.335Z,34.78
2023-01-03T17:38:45.547Z,26.40
2023-01-03T17:49:06.339Z,18.30
2023-01-03T17:59:12.452Z,68.93
2023-01-03T18:09:15.859Z,93.88
2023-01-03T18:19:18.088Z,71.45
2023-01-03T18:29:20.311Z,61.35
2023-01-03T18:39:28.544Z,55.40
2023-01-03T18:49:30.719Z,132.80
2023-01-03T18:59:32.904Z,64.63
2023-01-03T19:09:36.178Z,63.78
2023-01-03T19:19:38.889Z,65.57
2023-01-03T19:29:41.820Z,35.78
2023-01-03T19:39:44.003Z,10.68
2023-01-03T19:49:47.529Z,20.10
2023-01-03T19:59:54.400Z,27.88
2023-01-03T20:09:56.669Z,68.03
2023-01-03T20:19:58.864Z,11.23
2023-01-03T20:30:01.070Z,22.35
2023-01-03T20:40:03.416Z,23.65
2023-01-03T20:50:07.719Z,23.48
2023-01-03T21:00:34.895Z,24.75
2023-01-03T21:10:40.864Z,51.15
2023-01-03T21:20:43.993Z,43.83
2023-01-03T21:40:17.516Z,21.92
2023-01-03T21:50:20.080Z,69.85
2023-01-03T22:00:22.716Z,44.22
2023-01-03T22:10:25.297Z,42.35
2023-01-03T22:20:29.064Z,47.70
2023-01-03T22:30:34.174Z,37.80
2023-01-03T22:40:36.364Z,22.13
2023-01-03T22:50:40.734Z,29.65
2023-01-03T23:00:43.560Z,32.95
2023-01-03T23:10:45.779Z,36.92
2023-01-03T23:20:48.835Z,25.98
2023-01-03T23:30:51.070Z,18.75
2023-01-03T23:40:53.265Z,6.88
2023-01-03T23:51:05.434Z,35.28
